Delta Virtual Airport Information Service

Osaka Kansai International Airport

ICAO: RJBB Country: Japan
Latitude: 34.4273 Longitude: 135.244
Latest Arrival : DAC928 (ZUUU-RJBB) Latest Departure : AFR291 (RJBB-LFPG)


WX CaptureLIVE
Data provided by noaa.gov | Fetched at 03:30:41

METAR : RJBB 300800Z 30008KT 9999 FEW025 BKN100 BKN150 23/18 Q1006 NOSIG

TAF : RJBB 300507Z 3006/0112 30007KT 9999 FEW020 SCT040 BECMG 3008/3010 36005KT


Runway Data for RJBB
Data provided by openaviationdata.com

Runway ID Mag Var Hdg Length Elevation Surface ILS Freq ILS Id ILS Slope
6 -7 57° 11483 ft 15 ft Asphalt 108.1 IKD 3
24 -7 237° 11483 ft 15 ft Asphalt 110.7 IKN 3

Osaka Kansai International Airport, Japan
Use only for reference purposes



Not for navigational purposes.